Pagrindinis puslapis
METAR-TAF:

METAR-TAF

Oro uostai :

Nansi, Prancūzija

platuma: 48-35N, ilguma: 005-58E, Aukštis: 336 m

Dabartinis oras

Ataskaita buvo paskelbta 39 minutes, ne 00:00 UTC
Vėjas 9 kt iš Šiaurės
Temperatūra 7°C
Drėgmė 61%
Slėgis 1020 hPa
Matomumas 10 km arba daugiau
nėra debesų žemiau 1500 m ir nėra kamuolinių lietaus debesų

METAR: LFSO 290000Z AUTO 36009KT CAVOK 07/M00 Q1020

Laikas: 01:39 (00:39 UTC)

Prognozė

Ataskaita buvo paskelbta 10 valandos ir 39 minutes, ne 14:00 UTC
Prognozė galioja nuo 27 metu 15 UTC su 28 metu 15 UTC
Vėjas 8 kt iš Rytų
Matomumas 10 km arba daugiau
nėra debesų žemiau 1500 m ir nėra kamuolinių lietaus debesų
Tikimybė 30% :
Laikinai
nuo 28 metu 03 UTC su 28 metu 07 UTC
Matomumas: 3000 m
rūkana

TAF: LFSO 271400Z 2715/2815 08008KT CAVOK PROB30 TEMPO 2803/2807 3000 BR

Orai ataskaitas ir orų prognozės (METAR, TAF).

turimą stotys yra geltonos ir raudonos taškus žemėlapyje.

Perkelti pele per norėdami pamatyti stoties vardą.

Tada spustelėkite, norėdami matyti oro stebėjimo ir prognozės.

Norėdami pakeisti žemėlapį: spustelėkite ant žalios mygtukų su juodo kryžiaus žemyn,; žalią mygtuką su brūkšneliu, jei norite nutolinti; arba žalių rodyklių gretimoms žemėlapius.


METAR-TAF: